AirNav   TITAN Aviation Fuels
 
 579 users online  

84NC Rooster Field Airport
Cameron, North Carolina, USA

GOING TO CAMERON?


FAA INFORMATION EFFECTIVE 03 NOVEMBER 2022

Location

FAA Identifier: 84NC
Lat/Long: 35-16-24.0000N 079-14-55.0000W
35-16.400000N 079-14.916667W
35.2733333,-79.2486111
(estimated)
Elevation: 340 ft. / 104 m (estimated)
From city: 4 miles S of CAMERON, NC
Time zone: UTC -5 (UTC -4 during Daylight Saving Time)
Zip code: 28394

Airport Operations

Airport use: Private use. Permission required prior to landing
Activation date: 04/2002
Control tower: no
ARTCC: WASHINGTON CENTER
FSS: RALEIGH FLIGHT SERVICE STATION
Attendance: UNATNDD
Wind indicator: yes
Segmented circle: no

Airport Communications

WX AWOS-3PT at SOP (7 nm W): 127.575 (910-692-4287)
WX ASOS at HFF (19 nm SW): 141.25 (910-396-7804)
WX AWOS-3 at TTA (20 nm N): 120.625 (919-708-5382)

Nearby radio navigation aids

VOR radial/distance  VOR name  Freq  Var
SDZr081/17.0SANDHILLS VORTAC111.8003W
FAYr317/25.2FAYETTEVILLE VOR/DME114.8504W
LIBr154/36.9LIBERTY VORTAC113.0003W

 
NDB name  Hdg/Dist  Freq  Var  ID
HARNETT259/29.741708WHQT .... --.- -

Airport Services

Runway Information

Runway 9/27

Dimensions: 2155 x 132 ft. / 657 x 40 m
Surface: turf
RUNWAY 9  RUNWAY 27
Traffic pattern: leftleft

Airport Ownership and Management from official FAA records

Ownership: Privately-owned
Owner: JOSEPH FITZGERALD
45 W 89TH ST APT 3A
NEW YORK, NY 10024-2078
Phone 910-286-6854
Manager: JOSEPH FITZGERALD
45 W 89TH ST APT 3A
NEW YORK, NY 10024-2078
Phone 910-286-6854

Airport Operational Statistics

Aircraft based on the field: 1
Single engine airplanes: 1
    

Additional Remarks

726 FT CELL TOWER 1.5 NM NW OF RY.
FOR CD CTC WASHINGTON ARTCC AT 703-771-3587.

Instrument Procedures

There are no published instrument procedures at 84NC.

Some nearby airports with instrument procedures:

KSOP - Moore County Airport (7 nm W)
KPOB - Pope Army Airfield (13 nm SE)
5W4 - P K Airpark (15 nm S)
KFBG - Simmons Army Airfield (18 nm SE)
KHFF - Mackall Army Airfield (19 nm SW)
KTTA - Raleigh Executive Jetport at Sanford-Lee County Airport (20 nm N)
 
Loc | Ops | Rwys | IFR | FBO | Links
Com | Nav | Svcs | Stats | Notes
Area around 84NC (Rooster Field Airport)
 
Road maps at: MapQuest Bing Google
 
Aerial photo
No photo
 
Sectional chart

 
Airport distance calculator
Flying to Rooster Field Airport? Find the distance to fly.

From to 84NC

Sunrise and sunset
Times for 28-Nov-2022
 Local
(UTC-5)
 Zulu
(UTC)
Morning civil twilight06:3811:38
Sunrise07:0612:06
Sunset17:0422:04
Evening civil twilight17:3222:32

Current date and time
Zulu (UTC)  28-Nov-2022 12:01:43
Local (UTC-5)  28-Nov-2022 07:01:43
 
METAR
KSOP 
8nm SW 
281156Z AUTO 24004KT 10SM CLR 10/07 A2985 RMK AO2 SLP111 70036 T01000072 10139 20094 53021 TSNO
KPOB 
13nm SE 
281155Z AUTO 21005KT 10SM CLR 09/06 A2983 RMK AO2 SLP104 70016 T00900064 10153 20089 52022 $
KFBG 
19nm SE 
281155Z AUTO 24005KT 10SM CLR 11/07 A2982 RMK AO2 SLP100 70005 T01070072 10158 20107 52021 $
KHFF 
20nm SW 
281155Z AUTO 27005KT 10SM CLR 10/08 A2982 RMK AO2 SLP100 70040 T00950078 10148 20077 52019 $
KTTA 
20nm N 
281155Z AUTO 00000KT 10SM CLR 06/06 A2983 RMK AO2 70058 T00640064 10120 20060
TAF
KFBG 
19nm SE 
281000Z 2810/2916 26010KT 9999 SKC QNH2982INS TX18/2818Z TN10/2911Z
NOTAMs
Click for the latest NOTAMs
NOTAMs are issued by the DoD/FAA and will open in a separate window not controlled by AirNav.

 

 
 

Would you like to see your business listed on this page?

 If your business provides an interesting product or service to pilots, flight crews, aircraft, or users of the Rooster Field Airport, you should consider listing it here.  To start the listing process, click on the button below
 
Add a business
 

Other Pages about Rooster Field Airport

Update a link
 
Copyright © AirNav, LLC. All rights reserved. Privacy Policy  Contact